sensor_id;sensor_type;location;lat;lon;timestamp;P1;durP1;ratioP1;P2;durP2;ratioP2
40150;SDS011;25866;52.420;10.640;2023-03-14T00:01:23;2.35;;;1.48;;
40150;SDS011;25866;52.420;10.640;2023-03-14T00:03:50;3.10;;;1.20;;
40150;SDS011;25866;52.420;10.640;2023-03-14T00:06:16;2.75;;;1.33;;
40150;SDS011;25866;52.420;10.640;2023-03-14T00:08:43;2.58;;;1.30;;
40150;SDS011;25866;52.420;10.640;2023-03-14T00:11:13;2.00;;;1.30;;
40150;SDS011;25866;52.420;10.640;2023-03-14T00:13:41;2.88;;;1.52;;
40150;SDS011;25866;52.420;10.640;2023-03-14T00:16:10;5.70;;;1.80;;
40150;SDS011;25866;52.420;10.640;2023-03-14T00:18:37;2.15;;;1.50;;
40150;SDS011;25866;52.420;10.640;2023-03-14T00:21:03;3.83;;;1.50;;
40150;SDS011;25866;52.420;10.640;2023-03-14T00:23:30;3.33;;;1.60;;
40150;SDS011;25866;52.420;10.640;2023-03-14T00:25:59;3.17;;;1.60;;
40150;SDS011;25866;52.420;10.640;2023-03-14T00:28:28;2.03;;;1.25;;
40150;SDS011;25866;52.420;10.640;2023-03-14T00:30:54;5.28;;;1.35;;
40150;SDS011;25866;52.420;10.640;2023-03-14T00:33:21;3.05;;;1.55;;
40150;SDS011;25866;52.420;10.640;2023-03-14T00:36:20;2.42;;;1.48;;
40150;SDS011;25866;52.420;10.640;2023-03-14T00:38:41;2.13;;;1.40;;
40150;SDS011;25866;52.420;10.640;2023-03-14T00:41:11;3.80;;;1.70;;
40150;SDS011;25866;52.420;10.640;2023-03-14T00:43:39;2.35;;;1.60;;
40150;SDS011;25866;52.420;10.640;2023-03-14T00:46:05;4.82;;;1.67;;
40150;SDS011;25866;52.420;10.640;2023-03-14T00:48:31;1.55;;;1.20;;
40150;SDS011;25866;52.420;10.640;2023-03-14T00:50:57;2.75;;;1.25;;
40150;SDS011;25866;52.420;10.640;2023-03-14T00:53:23;3.33;;;1.25;;
40150;SDS011;25866;52.420;10.640;2023-03-14T00:55:48;2.08;;;1.30;;
40150;SDS011;25866;52.420;10.640;2023-03-14T00:58:15;3.58;;;1.33;;
40150;SDS011;25866;52.420;10.640;2023-03-14T01:00:42;3.05;;;1.42;;
40150;SDS011;25866;52.420;10.640;2023-03-14T01:03:09;3.17;;;1.15;;
40150;SDS011;25866;52.420;10.640;2023-03-14T01:05:36;2.30;;;1.13;;
40150;SDS011;25866;52.420;10.640;2023-03-14T01:08:02;2.70;;;1.20;;
40150;SDS011;25866;52.420;10.640;2023-03-14T01:10:28;1.48;;;0.90;;
40150;SDS011;25866;52.420;10.640;2023-03-14T01:12:53;1.58;;;1.10;;
40150;SDS011;25866;52.420;10.640;2023-03-14T01:15:19;1.75;;;1.17;;
40150;SDS011;25866;52.420;10.640;2023-03-14T01:17:46;2.30;;;1.30;;
40150;SDS011;25866;52.420;10.640;2023-03-14T01:20:13;4.68;;;1.40;;
40150;SDS011;25866;52.420;10.640;2023-03-14T01:22:40;3.60;;;1.20;;
40150;SDS011;25866;52.420;10.640;2023-03-14T01:25:08;3.25;;;0.80;;
40150;SDS011;25866;52.420;10.640;2023-03-14T01:27:35;2.22;;;1.40;;
40150;SDS011;25866;52.420;10.640;2023-03-14T01:30:01;2.08;;;1.23;;
40150;SDS011;25866;52.420;10.640;2023-03-14T01:32:27;2.47;;;0.90;;
40150;SDS011;25866;52.420;10.640;2023-03-14T01:34:53;5.68;;;1.40;;
40150;SDS011;25866;52.420;10.640;2023-03-14T01:37:18;2.95;;;1.00;;
40150;SDS011;25866;52.420;10.640;2023-03-14T01:39:46;1.95;;;1.00;;
40150;SDS011;25866;52.420;10.640;2023-03-14T01:42:13;3.10;;;0.93;;
40150;SDS011;25866;52.420;10.640;2023-03-14T01:47:53;1.95;;;0.73;;
40150;SDS011;25866;52.420;10.640;2023-03-14T01:50:18;3.05;;;1.25;;
40150;SDS011;25866;52.420;10.640;2023-03-14T01:52:46;1.50;;;0.80;;
40150;SDS011;25866;52.420;10.640;2023-03-14T01:55:23;1.73;;;0.93;;
40150;SDS011;25866;52.420;10.640;2023-03-14T01:57:51;1.88;;;1.10;;
40150;SDS011;25866;52.420;10.640;2023-03-14T02:00:22;5.22;;;1.23;;
40150;SDS011;25866;52.420;10.640;2023-03-14T02:02:58;2.45;;;1.00;;
40150;SDS011;25866;52.420;10.640;2023-03-14T02:05:32;2.45;;;1.23;;
40150;SDS011;25866;52.420;10.640;2023-03-14T02:08:00;1.20;;;0.90;;
40150;SDS011;25866;52.420;10.640;2023-03-14T02:10:30;2.47;;;1.42;;
40150;SDS011;25866;52.420;10.640;2023-03-14T02:12:59;2.10;;;1.02;;
40150;SDS011;25866;52.420;10.640;2023-03-14T02:15:27;1.67;;;1.02;;
40150;SDS011;25866;52.420;10.640;2023-03-14T02:17:53;3.40;;;0.93;;
40150;SDS011;25866;52.420;10.640;2023-03-14T02:22:51;2.83;;;0.95;;
40150;SDS011;25866;52.420;10.640;2023-03-14T02:28:11;3.72;;;0.93;;
40150;SDS011;25866;52.420;10.640;2023-03-14T02:30:37;2.35;;;1.10;;
40150;SDS011;25866;52.420;10.640;2023-03-14T02:33:04;2.15;;;1.00;;
40150;SDS011;25866;52.420;10.640;2023-03-14T02:35:35;1.63;;;0.85;;
40150;SDS011;25866;52.420;10.640;2023-03-14T02:38:13;2.67;;;0.80;;
40150;SDS011;25866;52.420;10.640;2023-03-14T02:40:56;2.17;;;1.00;;
40150;SDS011;25866;52.420;10.640;2023-03-14T02:43:21;1.67;;;0.82;;
40150;SDS011;25866;52.420;10.640;2023-03-14T02:45:48;2.60;;;0.90;;
40150;SDS011;25866;52.420;10.640;2023-03-14T02:50:52;2.50;;;1.08;;
40150;SDS011;25866;52.420;10.640;2023-03-14T02:53:27;2.00;;;0.68;;
40150;SDS011;25866;52.420;10.640;2023-03-14T02:55:56;4.55;;;0.93;;
40150;SDS011;25866;52.420;10.640;2023-03-14T02:58:22;2.88;;;0.80;;
40150;SDS011;25866;52.420;10.640;2023-03-14T03:00:48;1.77;;;0.90;;
40150;SDS011;25866;52.420;10.640;2023-03-14T03:03:14;3.08;;;0.95;;
40150;SDS011;25866;52.420;10.640;2023-03-14T03:05:40;2.55;;;0.80;;
40150;SDS011;25866;52.420;10.640;2023-03-14T03:08:07;3.00;;;0.80;;
40150;SDS011;25866;52.420;10.640;2023-03-14T03:10:34;3.13;;;0.90;;
40150;SDS011;25866;52.420;10.640;2023-03-14T03:12:59;6.38;;;1.20;;
40150;SDS011;25866;52.420;10.640;2023-03-14T03:17:55;4.55;;;1.00;;
40150;SDS011;25866;52.420;10.640;2023-03-14T03:20:20;3.13;;;1.00;;
40150;SDS011;25866;52.420;10.640;2023-03-14T03:22:46;2.53;;;0.93;;
40150;SDS011;25866;52.420;10.640;2023-03-14T03:25:12;1.23;;;0.70;;
40150;SDS011;25866;52.420;10.640;2023-03-14T03:27:37;2.65;;;1.05;;
40150;SDS011;25866;52.420;10.640;2023-03-14T03:30:05;1.70;;;0.70;;
40150;SDS011;25866;52.420;10.640;2023-03-14T03:32:31;0.93;;;0.75;;
40150;SDS011;25866;52.420;10.640;2023-03-14T03:34:57;3.30;;;0.80;;
40150;SDS011;25866;52.420;10.640;2023-03-14T03:37:23;1.15;;;0.90;;
40150;SDS011;25866;52.420;10.640;2023-03-14T03:39:52;1.27;;;0.77;;
40150;SDS011;25866;52.420;10.640;2023-03-14T03:42:18;2.97;;;0.80;;
40150;SDS011;25866;52.420;10.640;2023-03-14T03:44:44;2.55;;;0.88;;
40150;SDS011;25866;52.420;10.640;2023-03-14T03:47:10;2.15;;;0.93;;
40150;SDS011;25866;52.420;10.640;2023-03-14T03:49:36;4.00;;;0.90;;
40150;SDS011;25866;52.420;10.640;2023-03-14T03:52:01;1.95;;;0.70;;
40150;SDS011;25866;52.420;10.640;2023-03-14T03:54:27;2.45;;;0.70;;
40150;SDS011;25866;52.420;10.640;2023-03-14T03:56:54;2.15;;;0.73;;
40150;SDS011;25866;52.420;10.640;2023-03-14T03:59:20;2.53;;;0.80;;
40150;SDS011;25866;52.420;10.640;2023-03-14T04:01:46;1.50;;;0.80;;
40150;SDS011;25866;52.420;10.640;2023-03-14T04:04:12;3.33;;;0.90;;
40150;SDS011;25866;52.420;10.640;2023-03-14T04:06:38;2.72;;;1.05;;
40150;SDS011;25866;52.420;10.640;2023-03-14T04:09:04;3.92;;;0.93;;
40150;SDS011;25866;52.420;10.640;2023-03-14T04:11:30;2.10;;;0.90;;
40150;SDS011;25866;52.420;10.640;2023-03-14T04:13:55;1.02;;;0.80;;
40150;SDS011;25866;52.420;10.640;2023-03-14T04:16:22;3.33;;;0.70;;
40150;SDS011;25866;52.420;10.640;2023-03-14T04:18:49;1.15;;;0.80;;
40150;SDS011;25866;52.420;10.640;2023-03-14T04:21:15;0.68;;;0.60;;
40150;SDS011;25866;52.420;10.640;2023-03-14T04:23:41;1.88;;;0.93;;
40150;SDS011;25866;52.420;10.640;2023-03-14T04:26:07;5.72;;;0.80;;
40150;SDS011;25866;52.420;10.640;2023-03-14T04:28:34;4.05;;;1.35;;
40150;SDS011;25866;52.420;10.640;2023-03-14T04:33:39;3.63;;;0.82;;
40150;SDS011;25866;52.420;10.640;2023-03-14T04:36:06;4.47;;;1.20;;
40150;SDS011;25866;52.420;10.640;2023-03-14T04:38:32;3.03;;;1.00;;
40150;SDS011;25866;52.420;10.640;2023-03-14T04:40:58;2.85;;;1.00;;
40150;SDS011;25866;52.420;10.640;2023-03-14T04:43:25;2.33;;;0.80;;
40150;SDS011;25866;52.420;10.640;2023-03-14T04:59:19;3.42;;;0.80;;
40150;SDS011;25866;52.420;10.640;2023-03-14T05:01:45;3.22;;;1.45;;
40150;SDS011;25866;52.420;10.640;2023-03-14T05:04:10;4.30;;;0.75;;
40150;SDS011;25866;52.420;10.640;2023-03-14T05:06:36;1.33;;;0.77;;
40150;SDS011;25866;52.420;10.640;2023-03-14T05:09:02;3.95;;;0.88;;
40150;SDS011;25866;52.420;10.640;2023-03-14T05:11:30;2.55;;;0.70;;
40150;SDS011;25866;52.420;10.640;2023-03-14T05:13:55;1.52;;;0.90;;
40150;SDS011;25866;52.420;10.640;2023-03-14T05:16:21;2.35;;;0.88;;
40150;SDS011;25866;52.420;10.640;2023-03-14T05:18:46;2.78;;;1.13;;
40150;SDS011;25866;52.420;10.640;2023-03-14T05:21:12;2.85;;;0.77;;
40150;SDS011;25866;52.420;10.640;2023-03-14T05:23:38;1.25;;;0.70;;
40150;SDS011;25866;52.420;10.640;2023-03-14T05:26:03;2.00;;;0.82;;
40150;SDS011;25866;52.420;10.640;2023-03-14T05:28:29;4.13;;;0.90;;
40150;SDS011;25866;52.420;10.640;2023-03-14T05:30:55;2.83;;;0.80;;
40150;SDS011;25866;52.420;10.640;2023-03-14T05:33:20;3.10;;;0.80;;
40150;SDS011;25866;52.420;10.640;2023-03-14T05:35:46;2.15;;;0.80;;
40150;SDS011;25866;52.420;10.640;2023-03-14T05:38:12;1.20;;;0.70;;
40150;SDS011;25866;52.420;10.640;2023-03-14T05:40:37;2.35;;;0.73;;
40150;SDS011;25866;52.420;10.640;2023-03-14T05:43:03;1.05;;;0.70;;
40150;SDS011;25866;52.420;10.640;2023-03-14T05:45:29;2.28;;;0.80;;
40150;SDS011;25866;52.420;10.640;2023-03-14T05:47:54;4.25;;;0.90;;
40150;SDS011;25866;52.420;10.640;2023-03-14T05:50:20;3.53;;;0.90;;
40150;SDS011;25866;52.420;10.640;2023-03-14T05:52:45;4.55;;;0.80;;
40150;SDS011;25866;52.420;10.640;2023-03-14T05:55:11;1.20;;;0.60;;
40150;SDS011;25866;52.420;10.640;2023-03-14T05:57:36;2.55;;;0.68;;
40150;SDS011;25866;52.420;10.640;2023-03-14T06:00:02;2.97;;;0.80;;
40150;SDS011;25866;52.420;10.640;2023-03-14T06:02:28;2.90;;;1.02;;
40150;SDS011;25866;52.420;10.640;2023-03-14T06:04:54;3.97;;;1.00;;
40150;SDS011;25866;52.420;10.640;2023-03-14T06:07:20;2.78;;;0.90;;
40150;SDS011;25866;52.420;10.640;2023-03-14T06:09:45;2.25;;;0.73;;
40150;SDS011;25866;52.420;10.640;2023-03-14T06:12:11;2.15;;;0.65;;
40150;SDS011;25866;52.420;10.640;2023-03-14T06:14:36;2.72;;;0.70;;
40150;SDS011;25866;52.420;10.640;2023-03-14T06:17:02;2.35;;;0.50;;
40150;SDS011;25866;52.420;10.640;2023-03-14T06:19:28;2.60;;;0.70;;
40150;SDS011;25866;52.420;10.640;2023-03-14T06:21:53;0.68;;;0.32;;
40150;SDS011;25866;52.420;10.640;2023-03-14T06:24:19;2.47;;;0.75;;
40150;SDS011;25866;52.420;10.640;2023-03-14T06:26:45;2.60;;;0.70;;
40150;SDS011;25866;52.420;10.640;2023-03-14T06:29:10;1.75;;;0.60;;
40150;SDS011;25866;52.420;10.640;2023-03-14T06:31:36;2.20;;;0.63;;
40150;SDS011;25866;52.420;10.640;2023-03-14T06:34:02;3.00;;;0.80;;
40150;SDS011;25866;52.420;10.640;2023-03-14T06:36:27;1.98;;;0.40;;
40150;SDS011;25866;52.420;10.640;2023-03-14T06:38:53;3.58;;;0.73;;
40150;SDS011;25866;52.420;10.640;2023-03-14T06:41:19;3.35;;;0.60;;
40150;SDS011;25866;52.420;10.640;2023-03-14T06:43:44;1.63;;;0.60;;
40150;SDS011;25866;52.420;10.640;2023-03-14T06:46:10;3.53;;;0.70;;
40150;SDS011;25866;52.420;10.640;2023-03-14T06:48:36;2.45;;;0.55;;
40150;SDS011;25866;52.420;10.640;2023-03-14T06:51:01;2.85;;;0.75;;
40150;SDS011;25866;52.420;10.640;2023-03-14T06:53:27;7.68;;;0.70;;
40150;SDS011;25866;52.420;10.640;2023-03-14T06:55:53;2.53;;;0.70;;
40150;SDS011;25866;52.420;10.640;2023-03-14T06:58:18;2.10;;;0.75;;
40150;SDS011;25866;52.420;10.640;2023-03-14T07:00:44;4.90;;;0.85;;
40150;SDS011;25866;52.420;10.640;2023-03-14T07:03:10;1.35;;;0.57;;
40150;SDS011;25866;52.420;10.640;2023-03-14T07:05:38;2.15;;;0.60;;
40150;SDS011;25866;52.420;10.640;2023-03-14T07:08:05;2.67;;;0.80;;
40150;SDS011;25866;52.420;10.640;2023-03-14T07:10:31;3.47;;;0.70;;
40150;SDS011;25866;52.420;10.640;2023-03-14T07:12:57;2.85;;;0.75;;
40150;SDS011;25866;52.420;10.640;2023-03-14T07:15:22;3.58;;;0.70;;
40150;SDS011;25866;52.420;10.640;2023-03-14T07:17:48;2.70;;;0.88;;
40150;SDS011;25866;52.420;10.640;2023-03-14T07:20:14;1.98;;;0.73;;
40150;SDS011;25866;52.420;10.640;2023-03-14T07:22:40;2.65;;;0.80;;
40150;SDS011;25866;52.420;10.640;2023-03-14T07:25:05;1.25;;;0.38;;
40150;SDS011;25866;52.420;10.640;2023-03-14T07:27:31;2.08;;;0.90;;
40150;SDS011;25866;52.420;10.640;2023-03-14T07:29:57;2.60;;;0.60;;
40150;SDS011;25866;52.420;10.640;2023-03-14T07:32:23;1.33;;;0.50;;
40150;SDS011;25866;52.420;10.640;2023-03-14T07:34:48;3.75;;;0.82;;
40150;SDS011;25866;52.420;10.640;2023-03-14T07:37:14;1.20;;;0.50;;
40150;SDS011;25866;52.420;10.640;2023-03-14T07:39:39;2.10;;;0.60;;
40150;SDS011;25866;52.420;10.640;2023-03-14T07:42:05;2.03;;;0.50;;
40150;SDS011;25866;52.420;10.640;2023-03-14T07:44:31;1.92;;;0.57;;
40150;SDS011;25866;52.420;10.640;2023-03-14T07:46:56;3.67;;;0.80;;
40150;SDS011;25866;52.420;10.640;2023-03-14T07:49:22;2.28;;;0.68;;
40150;SDS011;25866;52.420;10.640;2023-03-14T07:51:48;2.50;;;0.80;;
40150;SDS011;25866;52.420;10.640;2023-03-14T07:54:14;1.45;;;0.52;;
40150;SDS011;25866;52.420;10.640;2023-03-14T07:56:40;1.45;;;0.55;;
40150;SDS011;25866;52.420;10.640;2023-03-14T07:59:05;2.83;;;0.70;;
40150;SDS011;25866;52.420;10.640;2023-03-14T08:01:32;4.55;;;0.77;;
40150;SDS011;25866;52.420;10.640;2023-03-14T08:03:58;2.90;;;0.80;;
40150;SDS011;25866;52.420;10.640;2023-03-14T08:06:23;4.28;;;1.13;;
40150;SDS011;25866;52.420;10.640;2023-03-14T08:08:49;2.90;;;0.57;;
40150;SDS011;25866;52.420;10.640;2023-03-14T08:11:15;1.58;;;0.52;;
40150;SDS011;25866;52.420;10.640;2023-03-14T08:13:41;3.35;;;1.00;;
40150;SDS011;25866;52.420;10.640;2023-03-14T08:16:07;3.72;;;0.65;;
40150;SDS011;25866;52.420;10.640;2023-03-14T08:18:33;1.98;;;0.63;;
40150;SDS011;25866;52.420;10.640;2023-03-14T08:20:59;4.50;;;0.95;;
40150;SDS011;25866;52.420;10.640;2023-03-14T08:23:24;4.05;;;0.90;;
40150;SDS011;25866;52.420;10.640;2023-03-14T08:25:51;3.00;;;0.60;;
40150;SDS011;25866;52.420;10.640;2023-03-14T08:28:17;1.73;;;0.73;;
40150;SDS011;25866;52.420;10.640;2023-03-14T08:30:43;3.95;;;0.80;;
40150;SDS011;25866;52.420;10.640;2023-03-14T08:33:09;3.72;;;0.85;;
40150;SDS011;25866;52.420;10.640;2023-03-14T08:35:35;3.28;;;1.00;;
40150;SDS011;25866;52.420;10.640;2023-03-14T08:38:02;4.22;;;0.90;;
40150;SDS011;25866;52.420;10.640;2023-03-14T08:40:28;5.05;;;1.00;;
40150;SDS011;25866;52.420;10.640;2023-03-14T08:42:53;2.85;;;0.70;;
40150;SDS011;25866;52.420;10.640;2023-03-14T08:45:19;2.30;;;0.63;;
40150;SDS011;25866;52.420;10.640;2023-03-14T08:47:45;1.63;;;0.65;;
40150;SDS011;25866;52.420;10.640;2023-03-14T08:50:11;1.83;;;0.70;;
40150;SDS011;25866;52.420;10.640;2023-03-14T08:52:37;2.33;;;0.80;;
40150;SDS011;25866;52.420;10.640;2023-03-14T08:55:05;5.85;;;0.90;;
40150;SDS011;25866;52.420;10.640;2023-03-14T08:57:32;3.60;;;1.00;;
40150;SDS011;25866;52.420;10.640;2023-03-14T08:59:58;3.35;;;0.73;;
40150;SDS011;25866;52.420;10.640;2023-03-14T09:02:24;1.85;;;0.73;;
40150;SDS011;25866;52.420;10.640;2023-03-14T09:04:50;2.95;;;0.93;;
40150;SDS011;25866;52.420;10.640;2023-03-14T09:07:17;1.92;;;0.57;;
40150;SDS011;25866;52.420;10.640;2023-03-14T09:09:43;4.47;;;0.98;;
40150;SDS011;25866;52.420;10.640;2023-03-14T09:12:08;3.35;;;0.88;;
40150;SDS011;25866;52.420;10.640;2023-03-14T09:14:34;4.38;;;1.20;;
40150;SDS011;25866;52.420;10.640;2023-03-14T09:17:00;5.55;;;0.95;;
40150;SDS011;25866;52.420;10.640;2023-03-14T09:19:25;4.05;;;1.15;;
40150;SDS011;25866;52.420;10.640;2023-03-14T09:21:51;3.92;;;1.02;;
40150;SDS011;25866;52.420;10.640;2023-03-14T09:24:17;1.88;;;0.70;;
40150;SDS011;25866;52.420;10.640;2023-03-14T09:26:42;3.28;;;0.50;;
40150;SDS011;25866;52.420;10.640;2023-03-14T09:29:08;4.53;;;0.80;;
40150;SDS011;25866;52.420;10.640;2023-03-14T09:31:34;4.35;;;1.00;;
40150;SDS011;25866;52.420;10.640;2023-03-14T09:34:00;3.97;;;0.82;;
40150;SDS011;25866;52.420;10.640;2023-03-14T09:36:26;2.42;;;0.63;;
40150;SDS011;25866;52.420;10.640;2023-03-14T09:38:51;1.42;;;0.77;;
40150;SDS011;25866;52.420;10.640;2023-03-14T09:41:18;4.45;;;1.00;;
40150;SDS011;25866;52.420;10.640;2023-03-14T09:43:49;3.10;;;0.73;;
40150;SDS011;25866;52.420;10.640;2023-03-14T09:46:28;4.35;;;0.80;;
40150;SDS011;25866;52.420;10.640;2023-03-14T09:48:56;3.05;;;0.88;;
40150;SDS011;25866;52.420;10.640;2023-03-14T09:51:21;4.47;;;0.80;;
40150;SDS011;25866;52.420;10.640;2023-03-14T09:53:49;1.88;;;0.70;;
40150;SDS011;25866;52.420;10.640;2023-03-14T09:56:23;1.52;;;0.50;;
40150;SDS011;25866;52.420;10.640;2023-03-14T09:58:55;3.25;;;0.75;;
40150;SDS011;25866;52.420;10.640;2023-03-14T10:01:27;2.40;;;0.57;;
40150;SDS011;25866;52.420;10.640;2023-03-14T10:03:55;2.88;;;0.80;;
40150;SDS011;25866;52.420;10.640;2023-03-14T10:06:24;3.50;;;0.80;;
40150;SDS011;25866;52.420;10.640;2023-03-14T10:08:52;1.90;;;0.70;;
40150;SDS011;25866;52.420;10.640;2023-03-14T10:11:19;2.00;;;0.40;;
40150;SDS011;25866;52.420;10.640;2023-03-14T10:16:44;1.25;;;0.55;;
40150;SDS011;25866;52.420;10.640;2023-03-14T10:19:15;2.15;;;0.63;;
40150;SDS011;25866;52.420;10.640;2023-03-14T10:21:52;2.22;;;0.65;;
40150;SDS011;25866;52.420;10.640;2023-03-14T10:24:26;1.80;;;0.47;;
40150;SDS011;25866;52.420;10.640;2023-03-14T10:26:52;0.90;;;0.45;;
40150;SDS011;25866;52.420;10.640;2023-03-14T10:29:19;2.42;;;0.50;;
40150;SDS011;25866;52.420;10.640;2023-03-14T10:34:33;1.25;;;0.52;;
40150;SDS011;25866;52.420;10.640;2023-03-14T10:37:34;1.95;;;0.70;;
40150;SDS011;25866;52.420;10.640;2023-03-14T10:39:53;1.50;;;0.60;;
40150;SDS011;25866;52.420;10.640;2023-03-14T10:42:24;1.95;;;0.40;;
40150;SDS011;25866;52.420;10.640;2023-03-14T10:44:58;0.40;;;0.30;;
40150;SDS011;25866;52.420;10.640;2023-03-14T10:47:26;0.77;;;0.40;;
40150;SDS011;25866;52.420;10.640;2023-03-14T10:49:53;0.45;;;0.38;;
40150;SDS011;25866;52.420;10.640;2023-03-14T10:52:24;1.92;;;0.40;;
40150;SDS011;25866;52.420;10.640;2023-03-14T10:54:58;1.27;;;0.50;;
40150;SDS011;25866;52.420;10.640;2023-03-14T10:57:26;4.78;;;0.45;;
40150;SDS011;25866;52.420;10.640;2023-03-14T10:59:53;0.55;;;0.30;;
40150;SDS011;25866;52.420;10.640;2023-03-14T11:02:37;3.22;;;0.40;;
40150;SDS011;25866;52.420;10.640;2023-03-14T11:07:45;1.58;;;0.43;;
40150;SDS011;25866;52.420;10.640;2023-03-14T11:10:22;0.75;;;0.45;;
40150;SDS011;25866;52.420;10.640;2023-03-14T11:13:00;0.57;;;0.30;;
40150;SDS011;25866;52.420;10.640;2023-03-14T11:15:37;0.88;;;0.32;;
40150;SDS011;25866;52.420;10.640;2023-03-14T11:21:29;0.30;;;0.30;;
40150;SDS011;25866;52.420;10.640;2023-03-14T11:31:59;0.40;;;0.20;;
40150;SDS011;25866;52.420;10.640;2023-03-14T11:34:31;0.80;;;0.30;;
40150;SDS011;25866;52.420;10.640;2023-03-14T11:37:32;0.90;;;0.40;;
40150;SDS011;25866;52.420;10.640;2023-03-14T11:42:43;0.57;;;0.30;;
40150;SDS011;25866;52.420;10.640;2023-03-14T11:45:17;0.57;;;0.30;;
40150;SDS011;25866;52.420;10.640;2023-03-14T11:50:52;0.40;;;0.30;;
40150;SDS011;25866;52.420;10.640;2023-03-14T11:53:42;0.20;;;0.20;;
40150;SDS011;25866;52.420;10.640;2023-03-14T12:02:06;0.60;;;0.40;;
40150;SDS011;25866;52.420;10.640;2023-03-14T12:04:50;0.60;;;0.30;;
40150;SDS011;25866;52.420;10.640;2023-03-14T12:07:26;0.88;;;0.30;;
40150;SDS011;25866;52.420;10.640;2023-03-14T12:10:00;1.00;;;0.50;;
40150;SDS011;25866;52.420;10.640;2023-03-14T12:12:27;0.60;;;0.30;;
40150;SDS011;25866;52.420;10.640;2023-03-14T12:14:55;0.55;;;0.40;;
40150;SDS011;25866;52.420;10.640;2023-03-14T12:17:36;0.57;;;0.30;;
40150;SDS011;25866;52.420;10.640;2023-03-14T12:22:49;0.77;;;0.40;;
40150;SDS011;25866;52.420;10.640;2023-03-14T12:25:25;1.77;;;0.40;;
40150;SDS011;25866;52.420;10.640;2023-03-14T12:33:37;0.30;;;0.30;;
40150;SDS011;25866;52.420;10.640;2023-03-14T12:35:44;0.50;;;0.40;;
40150;SDS011;25866;52.420;10.640;2023-03-14T12:40:57;0.50;;;0.33;;
40150;SDS011;25866;52.420;10.640;2023-03-14T12:43:33;0.87;;;0.37;;
40150;SDS011;25866;52.420;10.640;2023-03-14T12:48:33;1.03;;;0.47;;
40150;SDS011;25866;52.420;10.640;2023-03-14T12:51:03;1.23;;;0.60;;
40150;SDS011;25866;52.420;10.640;2023-03-14T12:59:36;0.20;;;0.20;;
40150;SDS011;25866;52.420;10.640;2023-03-14T13:04:45;2.23;;;0.23;;
40150;SDS011;25866;52.420;10.640;2023-03-14T13:07:29;0.63;;;0.40;;
40150;SDS011;25866;52.420;10.640;2023-03-14T13:10:02;0.80;;;0.30;;
40150;SDS011;25866;52.420;10.640;2023-03-14T13:12:37;0.30;;;0.30;;
40150;SDS011;25866;52.420;10.640;2023-03-14T13:15:15;0.50;;;0.40;;
40150;SDS011;25866;52.420;10.640;2023-03-14T13:17:51;1.27;;;0.30;;
40150;SDS011;25866;52.420;10.640;2023-03-14T13:20:21;0.53;;;0.30;;
40150;SDS011;25866;52.420;10.640;2023-03-14T13:22:59;0.97;;;0.40;;
40150;SDS011;25866;52.420;10.640;2023-03-14T13:25:28;1.03;;;0.50;;
40150;SDS011;25866;52.420;10.640;2023-03-14T13:27:57;1.90;;;0.77;;
40150;SDS011;25866;52.420;10.640;2023-03-14T13:30:27;1.20;;;0.50;;
40150;SDS011;25866;52.420;10.640;2023-03-14T13:33:02;0.60;;;0.50;;
40150;SDS011;25866;52.420;10.640;2023-03-14T13:35:29;1.00;;;0.60;;
40150;SDS011;25866;52.420;10.640;2023-03-14T13:38:05;1.20;;;0.40;;
40150;SDS011;25866;52.420;10.640;2023-03-14T13:40:39;2.17;;;0.70;;
40150;SDS011;25866;52.420;10.640;2023-03-14T13:43:20;3.70;;;0.80;;
40150;SDS011;25866;52.420;10.640;2023-03-14T13:46:01;1.60;;;0.50;;
40150;SDS011;25866;52.420;10.640;2023-03-14T13:48:31;1.23;;;0.47;;
40150;SDS011;25866;52.420;10.640;2023-03-14T13:51:01;0.93;;;0.50;;
40150;SDS011;25866;52.420;10.640;2023-03-14T13:53:29;3.97;;;2.33;;
40150;SDS011;25866;52.420;10.640;2023-03-14T13:55:55;6.80;;;1.27;;
40150;SDS011;25866;52.420;10.640;2023-03-14T13:58:26;2.47;;;0.60;;
40150;SDS011;25866;52.420;10.640;2023-03-14T14:01:01;2.83;;;0.87;;
40150;SDS011;25866;52.420;10.640;2023-03-14T14:03:39;4.27;;;0.90;;
40150;SDS011;25866;52.420;10.640;2023-03-14T14:06:09;3.00;;;0.63;;
40150;SDS011;25866;52.420;10.640;2023-03-14T14:08:52;5.67;;;0.90;;
40150;SDS011;25866;52.420;10.640;2023-03-14T14:11:21;6.00;;;0.87;;
40150;SDS011;25866;52.420;10.640;2023-03-14T14:14:06;3.67;;;0.83;;
40150;SDS011;25866;52.420;10.640;2023-03-14T14:16:41;6.60;;;1.10;;
40150;SDS011;25866;52.420;10.640;2023-03-14T14:19:08;4.37;;;1.07;;
40150;SDS011;25866;52.420;10.640;2023-03-14T14:21:34;3.10;;;0.67;;
40150;SDS011;25866;52.420;10.640;2023-03-14T14:24:00;3.00;;;1.10;;
40150;SDS011;25866;52.420;10.640;2023-03-14T14:26:26;4.17;;;1.00;;
40150;SDS011;25866;52.420;10.640;2023-03-14T14:28:59;2.10;;;0.70;;
40150;SDS011;25866;52.420;10.640;2023-03-14T14:31:28;4.87;;;1.30;;
40150;SDS011;25866;52.420;10.640;2023-03-14T14:34:03;3.63;;;1.00;;
40150;SDS011;25866;52.420;10.640;2023-03-14T14:36:36;6.43;;;1.80;;
40150;SDS011;25866;52.420;10.640;2023-03-14T14:39:04;5.70;;;1.20;;
40150;SDS011;25866;52.420;10.640;2023-03-14T14:41:39;8.93;;;1.43;;
40150;SDS011;25866;52.420;10.640;2023-03-14T14:44:06;7.40;;;1.27;;
40150;SDS011;25866;52.420;10.640;2023-03-14T14:46:32;9.17;;;1.40;;
40150;SDS011;25866;52.420;10.640;2023-03-14T14:49:19;3.83;;;1.40;;
40150;SDS011;25866;52.420;10.640;2023-03-14T14:51:48;6.63;;;1.60;;
40150;SDS011;25866;52.420;10.640;2023-03-14T14:54:16;7.93;;;1.20;;
40150;SDS011;25866;52.420;10.640;2023-03-14T14:56:51;9.00;;;1.17;;
40150;SDS011;25866;52.420;10.640;2023-03-14T14:59:21;7.70;;;1.30;;
40150;SDS011;25866;52.420;10.640;2023-03-14T15:01:48;4.60;;;1.20;;
40150;SDS011;25866;52.420;10.640;2023-03-14T15:04:16;8.57;;;1.37;;
40150;SDS011;25866;52.420;10.640;2023-03-14T15:06:46;8.20;;;1.60;;
40150;SDS011;25866;52.420;10.640;2023-03-14T15:09:14;5.30;;;1.83;;
40150;SDS011;25866;52.420;10.640;2023-03-14T15:11:41;10.87;;;1.80;;
40150;SDS011;25866;52.420;10.640;2023-03-14T15:14:07;11.37;;;1.67;;
40150;SDS011;25866;52.420;10.640;2023-03-14T15:16:32;6.17;;;1.23;;
40150;SDS011;25866;52.420;10.640;2023-03-14T15:18:59;8.93;;;1.60;;
40150;SDS011;25866;52.420;10.640;2023-03-14T15:21:27;7.23;;;1.50;;
40150;SDS011;25866;52.420;10.640;2023-03-14T15:23:53;11.97;;;2.03;;
40150;SDS011;25866;52.420;10.640;2023-03-14T15:26:24;11.33;;;1.67;;
40150;SDS011;25866;52.420;10.640;2023-03-14T15:28:51;8.77;;;1.67;;
40150;SDS011;25866;52.420;10.640;2023-03-14T15:31:18;6.87;;;1.77;;
40150;SDS011;25866;52.420;10.640;2023-03-14T15:33:46;8.97;;;1.67;;
40150;SDS011;25866;52.420;10.640;2023-03-14T15:38:49;16.30;;;1.87;;
40150;SDS011;25866;52.420;10.640;2023-03-14T15:41:17;6.67;;;1.80;;
40150;SDS011;25866;52.420;10.640;2023-03-14T15:43:43;16.20;;;2.23;;
40150;SDS011;25866;52.420;10.640;2023-03-14T15:46:10;10.77;;;2.30;;
40150;SDS011;25866;52.420;10.640;2023-03-14T15:48:36;9.20;;;1.97;;
40150;SDS011;25866;52.420;10.640;2023-03-14T15:51:02;10.33;;;1.77;;
40150;SDS011;25866;52.420;10.640;2023-03-14T15:53:28;6.60;;;1.40;;
40150;SDS011;25866;52.420;10.640;2023-03-14T15:55:53;9.03;;;1.47;;
40150;SDS011;25866;52.420;10.640;2023-03-14T15:58:20;12.10;;;1.37;;
40150;SDS011;25866;52.420;10.640;2023-03-14T16:00:46;5.57;;;1.40;;
40150;SDS011;25866;52.420;10.640;2023-03-14T16:03:11;7.90;;;1.77;;
40150;SDS011;25866;52.420;10.640;2023-03-14T16:05:38;11.57;;;1.60;;